Terminal Aerodrome Forecast
Issued by NWS

Home | Current Version | Previous Version | Text Only | Print | Product List | Glossary On
Versions: 1 2 3 4 5 6 7 8 9 10 11 12 13 14 15 16 17 18 19 20 21
799
FTUS43 KDLH 191938 AAA
TAFBRD
TAF AMD
KBRD 191938Z 1920/2018 03011G20KT 3SM -SN BKN025 OVC040
      TEMPO 1920/1921 2SM -SN
     FM200000 03011KT P6SM VCSH OVC035
     FM200400 03010KT 5SM -SN OVC025
     FM200800 04009KT 2SM -SN OVC025
     FM201700 34008KT 6SM -SN BKN025=

USA.gov is the U.S. government's official web portal to all federal, state and local government web resources and services.